Harrisville, Michigan
Current Conditions -  °F | °C
As of 1:54 PM on Monday 20 Oct 2014 (Local Time) from KOSC Reporting Station
Overcast Overcast  
Wind Chill: 51°   Ceiling: 4200
Heat Index: 51°   Visibility: 7mi
Dew Point: 49°   Wind: 5mph
Humidity: 91%   Direction: 280°W
Pressure: 29.75"   Gusts: NA
Location:  44.66°N, 83.29°W
Report Text: KOSC 201754Z AUTO 28004KT 7SM SCT009 BKN042 OVC060 10/09 A2975 RMK AO2 T01060092
Loading
Personal Weather Stations






























Interactive Weather Map
Tropical Storm Tracking
New forecast layout! Learn more

10-Day Weather Forecast

Advertisements
Track Severe Weather on mobile